Time;durP1;ratioP1;P1;durP2;ratioP2;P2;SDS_P1;SDS_P2;PMS_P1;PMS_P2;Temp;Humidity;BMP_temperature;BMP_pressure;BME280_temperature;BME280_humidity;BME280_pressure;Samples;Min_cycle;Max_cycle;Signal;HPM_P1;HPM_P2
2021/12/01 00:02:11;;;;;;;1.38;1.00;;;3.70;99.90;;;;;;5075893;28;20035;-82
2021/12/01 00:04:37;;;;;;;1.30;1.02;;;3.70;99.90;;;;;;5093975;28;20028;-81
2021/12/01 00:07:06;;;;;;;1.40;1.20;;;3.70;99.90;;;;;;5075985;28;20020;-81
2021/12/01 00:09:32;;;;;;;1.25;0.88;;;3.70;99.90;;;;;;5075761;28;20395;-81
2021/12/01 00:11:57;;;;;;;1.00;0.90;;;3.70;99.90;;;;;;5094156;28;20016;-82
2021/12/01 00:14:23;;;;;;;1.65;1.20;;;3.80;99.90;;;;;;5075947;28;20032;-81
2021/12/01 00:16:49;;;;;;;1.58;1.00;;;3.70;99.90;;;;;;5075584;28;20379;-81
2021/12/01 00:19:15;;;;;;;1.10;0.85;;;3.70;99.90;;;;;;5093741;28;20024;-82
2021/12/01 00:21:41;;;;;;;1.05;0.82;;;3.70;99.90;;;;;;5075567;28;20028;-82
2021/12/01 00:24:06;;;;;;;0.90;0.80;;;3.70;99.90;;;;;;5093563;28;20053;-82
2021/12/01 00:26:32;;;;;;;1.50;0.90;;;3.70;99.90;;;;;;5093631;28;20148;-82
2021/12/01 00:28:58;;;;;;;0.90;0.77;;;3.70;99.90;;;;;;5093667;28;20031;-82
2021/12/01 00:31:24;;;;;;;0.82;0.65;;;3.80;99.90;;;;;;5074819;28;20044;-82
2021/12/01 00:33:50;;;;;;;0.75;0.73;;;3.70;99.90;;;;;;5075370;28;20070;-80
2021/12/01 00:36:15;;;;;;;0.80;0.60;;;3.70;99.90;;;;;;5075412;28;20051;-82
2021/12/01 00:38:42;;;;;;;3.25;1.20;;;3.70;99.90;;;;;;5093356;28;20047;-82
2021/12/01 00:41:12;;;;;;;2.08;0.80;;;3.70;99.90;;;;;;5075363;28;20024;-82
2021/12/01 00:43:39;;;;;;;1.10;0.90;;;3.70;99.90;;;;;;5075198;28;20032;-81
2021/12/01 00:46:22;;;;;;;0.60;0.60;;;3.70;99.90;;;;;;5075286;28;20016;-82
2021/12/01 00:48:48;;;;;;;0.80;0.77;;;3.70;99.90;;;;;;5093405;28;20475;-82
2021/12/01 00:51:16;;;;;;;1.15;0.70;;;3.70;99.90;;;;;;5093332;28;20284;-82
2021/12/01 00:53:42;;;;;;;0.85;0.80;;;3.60;99.90;;;;;;5093338;28;20020;-81
2021/12/01 00:56:09;;;;;;;0.70;0.70;;;3.60;99.90;;;;;;5075114;28;20031;-81
2021/12/01 00:58:35;;;;;;;1.13;0.90;;;3.60;99.90;;;;;;5075149;28;20388;-81
2021/12/01 01:01:02;;;;;;;2.30;1.10;;;3.60;99.90;;;;;;5075098;28;20031;-81
2021/12/01 01:03:28;;;;;;;5.28;1.10;;;3.60;99.90;;;;;;5074929;28;20115;-82
2021/12/01 01:05:54;;;;;;;1.00;0.77;;;3.50;99.90;;;;;;5075110;28;20103;-81
2021/12/01 01:08:20;;;;;;;0.98;0.80;;;3.50;99.90;;;;;;5075124;28;20364;-81
2021/12/01 01:11:08;;;;;;;1.20;1.10;;;3.50;99.90;;;;;;5075000;28;20152;-81
2021/12/01 01:16:23;;;;;;;2.08;0.95;;;3.50;99.90;;;;;;5093720;28;20039;-81
2021/12/01 01:19:10;;;;;;;0.93;0.80;;;3.50;99.90;;;;;;5093378;28;20032;-80
2021/12/01 01:21:41;;;;;;;3.17;0.98;;;3.50;99.90;;;;;;5074930;28;20104;-80
2021/12/01 01:24:07;;;;;;;2.05;1.00;;;3.50;99.90;;;;;;5093226;28;20032;-81
2021/12/01 01:26:35;;;;;;;1.27;1.10;;;3.50;99.90;;;;;;5074816;28;20020;-81
2021/12/01 01:29:01;;;;;;;1.10;1.00;;;3.50;99.90;;;;;;5075070;28;20049;-81
2021/12/01 01:31:28;;;;;;;1.10;1.00;;;3.60;99.90;;;;;;5074830;28;20403;-81
2021/12/01 01:33:54;;;;;;;1.52;0.90;;;3.60;99.90;;;;;;5074796;28;20093;-81
2021/12/01 01:36:20;;;;;;;2.03;1.10;;;3.50;99.90;;;;;;5074705;28;20020;-81
2021/12/01 01:38:46;;;;;;;1.98;1.08;;;3.60;99.90;;;;;;5074680;28;20448;-82
2021/12/01 01:41:13;;;;;;;2.17;1.20;;;3.50;99.90;;;;;;5074740;28;20082;-82
2021/12/01 01:43:41;;;;;;;1.60;1.08;;;3.50;99.90;;;;;;5077073;28;20028;-81
2021/12/01 01:46:08;;;;;;;2.35;1.40;;;3.50;99.90;;;;;;5078443;28;20376;-82
2021/12/01 01:48:45;;;;;;;3.35;1.13;;;3.60;99.90;;;;;;5078376;28;20068;-81
2021/12/01 01:51:12;;;;;;;1.48;1.00;;;3.60;99.90;;;;;;5096685;28;20031;-81
2021/12/01 01:53:39;;;;;;;2.10;1.50;;;3.60;99.90;;;;;;5096503;28;20020;-81
2021/12/01 01:56:06;;;;;;;1.83;1.25;;;3.60;99.90;;;;;;5078281;28;20063;-81
2021/12/01 01:58:32;;;;;;;2.38;1.30;;;3.60;99.90;;;;;;5096418;28;20024;-81
2021/12/01 02:01:06;;;;;;;1.33;1.10;;;3.60;99.90;;;;;;5078164;28;20479;-82
2021/12/01 02:03:39;;;;;;;2.05;1.17;;;3.60;99.90;;;;;;5096378;28;20028;-82
2021/12/01 02:06:08;;;;;;;2.70;1.17;;;3.60;99.90;;;;;;5096690;28;20024;-81
2021/12/01 02:08:35;;;;;;;1.75;1.30;;;3.70;99.90;;;;;;5097006;28;20034;-82
2021/12/01 02:11:05;;;;;;;1.08;0.98;;;3.70;99.90;;;;;;5078636;28;20034;-81
2021/12/01 02:13:32;;;;;;;2.88;1.25;;;3.70;99.90;;;;;;5096268;28;20028;-81
2021/12/01 02:16:00;;;;;;;1.55;1.20;;;3.70;99.90;;;;;;5077855;28;20115;-82
2021/12/01 02:18:26;;;;;;;1.20;1.10;;;3.60;99.90;;;;;;5077952;28;20418;-82
2021/12/01 02:21:14;;;;;;;1.90;1.00;;;3.70;99.90;;;;;;5077874;28;20024;-82
2021/12/01 02:23:50;;;;;;;1.00;0.90;;;3.70;99.90;;;;;;5077682;28;20123;-82
2021/12/01 02:26:17;;;;;;;1.23;1.10;;;3.70;99.90;;;;;;5095926;28;20027;-82
2021/12/01 02:28:46;;;;;;;1.00;0.90;;;3.70;99.90;;;;;;5077686;28;20035;-82
2021/12/01 02:31:13;;;;;;;2.53;0.70;;;3.70;99.90;;;;;;5095843;28;20414;-82
2021/12/01 02:33:40;;;;;;;0.90;0.77;;;3.70;99.90;;;;;;5077654;28;20115;-82
2021/12/01 02:36:11;;;;;;;1.08;0.90;;;3.70;99.90;;;;;;5095798;28;20028;-81
2021/12/01 02:38:40;;;;;;;1.10;1.00;;;3.70;99.90;;;;;;5095650;28;20074;-82
2021/12/01 02:41:07;;;;;;;1.00;0.90;;;3.70;99.90;;;;;;5078497;28;20057;-83
2021/12/01 02:43:33;;;;;;;1.92;0.98;;;3.70;99.90;;;;;;5077345;28;20028;-82
2021/12/01 02:45:59;;;;;;;0.95;0.88;;;3.70;99.90;;;;;;5077694;28;20023;-81
2021/12/01 02:48:25;;;;;;;0.85;0.80;;;3.80;99.90;;;;;;5077235;28;20032;-82
2021/12/01 02:50:55;;;;;;;1.55;1.00;;;3.80;99.90;;;;;;5077375;28;20042;-82
2021/12/01 02:53:22;;;;;;;1.02;0.90;;;3.80;99.90;;;;;;5077244;28;20020;-81
2021/12/01 02:55:54;;;;;;;1.02;0.90;;;3.80;99.90;;;;;;5094982;28;20024;-82
2021/12/01 02:58:20;;;;;;;0.95;0.80;;;3.80;99.90;;;;;;5077161;28;20059;-81
2021/12/01 03:00:47;;;;;;;1.30;1.00;;;3.80;99.90;;;;;;5077174;28;20074;-82
2021/12/01 03:03:13;;;;;;;1.70;1.08;;;3.80;99.90;;;;;;5077049;28;20024;-82
2021/12/01 03:05:40;;;;;;;0.70;0.70;;;3.90;99.90;;;;;;5076967;28;20027;-82
2021/12/01 03:08:07;;;;;;;1.10;1.00;;;3.90;99.90;;;;;;5095101;28;20105;-83
2021/12/01 03:10:33;;;;;;;1.30;0.90;;;3.90;99.90;;;;;;5095105;28;20028;-82
2021/12/01 03:12:59;;;;;;;1.33;1.02;;;3.90;99.90;;;;;;5095036;28;20023;-82
2021/12/01 03:15:25;;;;;;;1.10;0.90;;;3.90;99.90;;;;;;5095213;28;20089;-81
2021/12/01 03:17:50;;;;;;;1.80;1.17;;;3.90;99.90;;;;;;5077579;28;20032;-81
2021/12/01 03:20:20;;;;;;;1.52;1.05;;;3.90;99.90;;;;;;5076736;28;20433;-80
2021/12/01 03:22:46;;;;;;;1.30;1.20;;;3.90;99.90;;;;;;5076641;28;20036;-82
2021/12/01 03:25:14;;;;;;;2.55;1.00;;;3.90;99.90;;;;;;5094799;28;20016;-82
2021/12/01 03:27:40;;;;;;;1.83;1.00;;;3.90;99.90;;;;;;5076527;28;20079;-82
2021/12/01 03:30:12;;;;;;;1.92;1.33;;;4.00;99.90;;;;;;5076517;28;20039;-82
2021/12/01 03:32:39;;;;;;;1.30;1.00;;;4.00;99.90;;;;;;5094630;28;20027;-82
2021/12/01 03:35:07;;;;;;;4.20;1.20;;;4.00;99.90;;;;;;5076409;28;20016;-83
2021/12/01 03:37:34;;;;;;;1.60;1.05;;;4.00;99.90;;;;;;5076207;28;20036;-81
2021/12/01 03:40:00;;;;;;;1.38;1.15;;;4.00;99.90;;;;;;5094490;28;20016;-82
2021/12/01 03:42:26;;;;;;;1.70;1.15;;;4.00;99.90;;;;;;5094464;28;20023;-82
2021/12/01 03:44:55;;;;;;;2.72;1.20;;;4.00;99.90;;;;;;5094394;28;20475;-82
2021/12/01 03:47:23;;;;;;;3.00;1.30;;;4.00;99.90;;;;;;5094345;28;20380;-82
2021/12/01 03:49:49;;;;;;;2.72;1.23;;;4.00;99.90;;;;;;5076171;28;20027;-82
2021/12/01 03:52:17;;;;;;;3.13;1.10;;;3.90;99.90;;;;;;5076097;28;20070;-82
2021/12/01 03:54:44;;;;;;;1.42;1.20;;;3.90;99.90;;;;;;5076013;28;20020;-82
2021/12/01 03:57:10;;;;;;;1.90;1.20;;;3.90;99.90;;;;;;5076010;28;20480;-82
2021/12/01 03:59:36;;;;;;;1.40;1.17;;;4.00;99.90;;;;;;5094125;28;20034;-82
2021/12/01 04:02:02;;;;;;;1.30;1.20;;;4.10;99.90;;;;;;5094365;28;20421;-81
2021/12/01 04:04:28;;;;;;;2.90;1.13;;;4.10;99.90;;;;;;5075754;28;20031;-81
2021/12/01 04:06:53;;;;;;;1.73;1.15;;;4.20;99.90;;;;;;5093072;28;20091;-81
2021/12/01 04:09:19;;;;;;;1.58;1.08;;;4.20;99.90;;;;;;5075743;28;20476;-81
2021/12/01 04:11:45;;;;;;;2.05;1.20;;;4.20;99.90;;;;;;5093848;28;20429;-82
2021/12/01 04:14:11;;;;;;;1.58;1.17;;;4.20;99.90;;;;;;5075700;28;20020;-82
2021/12/01 04:16:36;;;;;;;1.85;1.20;;;4.20;99.90;;;;;;5094176;28;20051;-81
2021/12/01 04:19:03;;;;;;;1.45;0.90;;;4.20;99.90;;;;;;5076052;28;20024;-82
2021/12/01 04:21:28;;;;;;;1.85;1.25;;;4.20;99.90;;;;;;5075797;28;20035;-81
2021/12/01 04:23:54;;;;;;;3.05;1.20;;;4.20;99.90;;;;;;5075586;28;20032;-81
2021/12/01 04:26:26;;;;;;;2.53;1.20;;;4.30;99.90;;;;;;5093673;28;20016;-83
2021/12/01 04:28:53;;;;;;;6.82;1.60;;;4.30;99.90;;;;;;5075605;28;20365;-81
2021/12/01 04:31:20;;;;;;;1.42;0.93;;;4.30;99.90;;;;;;5093688;28;20020;-81
2021/12/01 04:33:46;;;;;;;0.98;0.80;;;4.30;99.90;;;;;;5075547;28;20433;-82
2021/12/01 04:36:12;;;;;;;1.00;0.90;;;4.40;99.90;;;;;;5075352;28;20028;-82
2021/12/01 04:38:38;;;;;;;3.15;0.95;;;4.50;99.90;;;;;;5075247;28;20048;-82
2021/12/01 04:41:04;;;;;;;1.63;1.02;;;4.60;99.90;;;;;;5075302;28;20031;-81
2021/12/01 04:43:31;;;;;;;1.23;0.80;;;4.50;99.90;;;;;;5075177;28;20024;-81
2021/12/01 04:46:00;;;;;;;2.38;0.85;;;4.60;99.90;;;;;;5075391;28;20020;-81
2021/12/01 04:48:27;;;;;;;1.17;0.90;;;4.60;99.90;;;;;;5093323;28;20024;-82
2021/12/01 04:50:54;;;;;;;4.10;1.10;;;4.60;99.90;;;;;;5075051;28;20027;-82
2021/12/01 04:53:20;;;;;;;1.48;0.77;;;4.50;99.90;;;;;;5075214;28;20483;-82
2021/12/01 04:55:46;;;;;;;1.67;1.08;;;4.60;99.90;;;;;;5075218;28;20020;-82
2021/12/01 04:58:12;;;;;;;0.70;0.70;;;4.60;99.90;;;;;;5093229;28;20024;-82
2021/12/01 05:00:38;;;;;;;1.65;1.02;;;4.60;99.90;;;;;;5075123;28;20069;-81
2021/12/01 05:03:07;;;;;;;1.70;0.80;;;4.60;99.90;;;;;;5093169;28;20032;-82
2021/12/01 05:05:33;;;;;;;1.65;0.70;;;4.70;99.90;;;;;;5075102;28;20017;-81
2021/12/01 05:07:59;;;;;;;3.00;1.10;;;4.70;99.90;;;;;;5093447;28;20024;-82
2021/12/01 05:10:24;;;;;;;1.23;0.70;;;4.70;99.90;;;;;;5075013;28;20107;-81
2021/12/01 05:12:50;;;;;;;1.42;1.00;;;4.70;99.90;;;;;;5093128;28;20390;-82
2021/12/01 05:15:16;;;;;;;2.85;0.70;;;4.70;99.90;;;;;;5075265;28;20476;-82
2021/12/01 05:17:42;;;;;;;7.30;1.35;;;4.70;99.90;;;;;;5075941;28;20449;-82
2021/12/01 05:20:08;;;;;;;0.95;0.70;;;4.70;99.90;;;;;;5097167;28;20493;-81
2021/12/01 05:22:35;;;;;;;4.70;0.90;;;4.70;99.90;;;;;;5078952;28;20506;-81
2021/12/01 05:25:01;;;;;;;0.65;0.65;;;4.80;99.90;;;;;;5097206;28;20024;-82
2021/12/01 05:27:27;;;;;;;2.58;0.88;;;4.70;99.90;;;;;;5097116;28;20032;-83
2021/12/01 05:29:53;;;;;;;1.15;0.90;;;4.70;99.90;;;;;;5078804;28;20023;-83
2021/12/01 05:32:20;;;;;;;3.40;0.93;;;4.70;99.90;;;;;;5096974;28;20027;-81
2021/12/01 05:34:46;;;;;;;2.03;0.90;;;4.60;99.90;;;;;;5078807;28;20032;-82
2021/12/01 05:37:12;;;;;;;1.52;0.98;;;4.60;99.90;;;;;;5078426;28;20036;-82
2021/12/01 05:39:41;;;;;;;1.20;0.93;;;4.70;99.90;;;;;;5078648;28;20032;-82
2021/12/01 05:42:08;;;;;;;2.88;0.80;;;4.70;99.90;;;;;;5096803;28;20111;-82
2021/12/01 05:44:34;;;;;;;2.05;1.02;;;4.70;99.90;;;;;;5078714;28;20366;-82
2021/12/01 05:47:01;;;;;;;4.20;0.90;;;4.60;99.90;;;;;;5096695;28;20423;-82
2021/12/01 05:49:27;;;;;;;7.03;1.10;;;4.60;99.90;;;;;;5078366;28;20028;-82
2021/12/01 05:51:53;;;;;;;1.80;0.95;;;4.60;99.90;;;;;;5096572;28;20066;-82
2021/12/01 05:54:19;;;;;;;1.58;0.85;;;4.60;99.90;;;;;;5078318;28;20475;-82
2021/12/01 05:56:45;;;;;;;0.98;0.88;;;4.60;99.90;;;;;;5078325;28;20074;-82
2021/12/01 05:59:10;;;;;;;5.18;1.90;;;4.60;99.90;;;;;;5096686;28;20028;-82
2021/12/01 06:01:36;;;;;;;3.55;1.00;;;4.60;99.90;;;;;;5078246;28;20028;-83
2021/12/01 06:04:02;;;;;;;1.42;1.10;;;4.50;99.90;;;;;;5096334;28;20027;-82
2021/12/01 06:06:29;;;;;;;2.30;0.70;;;4.60;99.90;;;;;;5078149;28;20020;-83
2021/12/01 06:08:56;;;;;;;2.78;1.00;;;4.60;99.90;;;;;;5096318;28;20016;-83
2021/12/01 06:11:22;;;;;;;1.77;0.80;;;4.70;99.90;;;;;;5078120;28;20439;-82
2021/12/01 06:13:52;;;;;;;2.30;0.73;;;4.70;99.90;;;;;;5096616;28;20136;-82
2021/12/01 06:16:20;;;;;;;1.70;0.80;;;4.70;99.90;;;;;;5078065;28;20024;-83
2021/12/01 06:18:46;;;;;;;0.90;0.65;;;4.70;99.90;;;;;;5096128;28;20038;-83
2021/12/01 06:21:12;;;;;;;2.78;0.75;;;4.70;99.90;;;;;;5078195;28;20483;-83
2021/12/01 06:23:38;;;;;;;1.33;0.80;;;4.80;99.90;;;;;;5095968;28;20024;-81
2021/12/01 06:26:03;;;;;;;5.57;0.90;;;4.90;99.90;;;;;;5077771;28;20119;-83
2021/12/01 06:28:29;;;;;;;4.38;1.05;;;4.90;99.90;;;;;;5095910;28;20047;-81
2021/12/01 06:30:55;;;;;;;3.65;0.80;;;4.90;99.90;;;;;;5076938;28;20028;-80
2021/12/01 06:33:21;;;;;;;2.25;0.90;;;4.90;99.90;;;;;;5095823;28;20020;-80
2021/12/01 06:35:51;;;;;;;3.38;0.88;;;5.00;99.90;;;;;;5077614;28;20032;-80
2021/12/01 06:38:19;;;;;;;2.10;0.88;;;4.90;99.90;;;;;;5077391;28;20055;-78
2021/12/01 06:40:46;;;;;;;1.65;0.90;;;5.00;99.90;;;;;;5077526;28;20055;-79
2021/12/01 06:43:12;;;;;;;3.30;0.60;;;5.10;99.90;;;;;;5077413;28;20032;-78
2021/12/01 06:45:38;;;;;;;1.35;0.80;;;5.10;99.90;;;;;;5095607;28;20026;-80
2021/12/01 06:48:05;;;;;;;0.80;0.65;;;5.20;99.90;;;;;;5095526;28;20020;-79
2021/12/01 06:50:31;;;;;;;2.00;0.88;;;5.20;99.90;;;;;;5077314;28;20475;-80
2021/12/01 06:52:56;;;;;;;1.60;0.77;;;5.20;99.90;;;;;;5095395;28;20035;-79
2021/12/01 06:55:23;;;;;;;1.10;0.60;;;5.10;99.90;;;;;;5077286;28;20028;-80
2021/12/01 06:57:49;;;;;;;0.70;0.60;;;5.20;99.90;;;;;;5095342;28;20052;-80
2021/12/01 07:00:17;;;;;;;4.43;0.60;;;5.20;99.90;;;;;;5077146;28;20028;-80
2021/12/01 07:02:43;;;;;;;1.85;0.85;;;5.20;99.90;;;;;;5095521;28;20032;-79
2021/12/01 07:05:09;;;;;;;2.35;0.90;;;5.20;99.90;;;;;;5077063;28;20028;-79
2021/12/01 07:07:36;;;;;;;1.02;0.60;;;5.20;99.90;;;;;;5077142;28;20417;-79
2021/12/01 07:10:04;;;;;;;1.48;0.70;;;5.20;99.90;;;;;;5060369;28;20077;-80
2021/12/01 07:12:30;;;;;;;2.25;0.85;;;5.20;99.90;;;;;;5076924;28;20092;-79
2021/12/01 07:14:56;;;;;;;0.70;0.68;;;5.20;99.90;;;;;;5076774;28;20058;-79
2021/12/01 07:17:22;;;;;;;1.95;0.77;;;5.20;99.90;;;;;;5094836;28;20031;-80
2021/12/01 07:19:48;;;;;;;1.65;0.93;;;5.20;99.90;;;;;;5095194;28;20085;-79
2021/12/01 07:22:14;;;;;;;1.95;0.60;;;5.30;99.90;;;;;;5094906;28;20073;-80
2021/12/01 07:24:41;;;;;;;2.20;0.80;;;5.20;99.90;;;;;;5076608;28;20027;-80
2021/12/01 07:27:07;;;;;;;2.42;0.68;;;5.20;99.90;;;;;;5094752;28;20020;-79
2021/12/01 07:29:35;;;;;;;1.92;0.60;;;5.20;99.90;;;;;;5076791;28;20023;-79
2021/12/01 07:32:01;;;;;;;0.68;0.50;;;5.20;99.90;;;;;;5094666;28;20387;-78
2021/12/01 07:34:27;;;;;;;0.50;0.50;;;5.30;99.90;;;;;;5076479;28;20024;-80
2021/12/01 07:36:52;;;;;;;0.70;0.57;;;5.30;99.90;;;;;;5094349;28;20436;-78
2021/12/01 07:39:19;;;;;;;1.23;0.90;;;5.30;99.90;;;;;;5094525;28;20020;-78
2021/12/01 07:41:46;;;;;;;0.90;0.50;;;5.30;99.90;;;;;;5076066;28;20044;-79
2021/12/01 07:44:13;;;;;;;1.10;0.47;;;5.40;99.90;;;;;;5076590;28;20479;-79
2021/12/01 07:46:38;;;;;;;0.75;0.50;;;5.40;99.90;;;;;;5094306;28;20031;-78
2021/12/01 07:49:04;;;;;;;0.68;0.68;;;5.40;99.90;;;;;;5075949;28;20016;-78
2021/12/01 07:51:31;;;;;;;0.70;0.50;;;5.40;99.90;;;;;;5094262;28;20054;-79
2021/12/01 07:53:57;;;;;;;3.97;1.27;;;5.40;99.90;;;;;;5094499;28;20479;-79
2021/12/01 07:56:23;;;;;;;2.20;0.60;;;5.60;99.90;;;;;;5075969;28;20024;-79
2021/12/01 07:58:48;;;;;;;0.95;0.60;;;5.60;99.90;;;;;;5094084;28;20031;-79
2021/12/01 08:01:14;;;;;;;0.52;0.50;;;5.60;99.90;;;;;;5075813;28;20058;-80
2021/12/01 08:03:40;;;;;;;0.88;0.70;;;5.60;99.90;;;;;;5075793;28;20052;-80
2021/12/01 08:06:05;;;;;;;0.68;0.50;;;5.60;99.90;;;;;;5075815;28;20016;-80
2021/12/01 08:08:31;;;;;;;2.00;0.75;;;5.70;99.90;;;;;;5093911;28;20024;-79
2021/12/01 08:10:57;;;;;;;1.05;0.50;;;5.70;99.90;;;;;;5075713;28;20227;-79
2021/12/01 08:13:23;;;;;;;0.60;0.60;;;5.70;99.90;;;;;;5093908;28;20099;-80
2021/12/01 08:15:49;;;;;;;0.68;0.60;;;5.70;99.90;;;;;;5075645;28;20036;-78
2021/12/01 08:18:17;;;;;;;2.30;0.50;;;5.70;99.90;;;;;;5075583;28;20399;-79
2021/12/01 08:20:43;;;;;;;0.57;0.50;;;5.80;99.90;;;;;;5075512;28;20027;-78
2021/12/01 08:23:09;;;;;;;0.80;0.60;;;5.80;99.90;;;;;;5075390;28;20441;-79
2021/12/01 08:25:38;;;;;;;0.40;0.40;;;5.80;99.90;;;;;;5093657;28;20028;-80
2021/12/01 08:28:04;;;;;;;0.50;0.43;;;5.90;99.90;;;;;;5075398;28;20054;-79
2021/12/01 08:30:31;;;;;;;0.85;0.57;;;5.90;99.90;;;;;;5075370;28;20020;-80
2021/12/01 08:32:58;;;;;;;0.98;0.50;;;5.90;99.90;;;;;;5075348;28;20066;-80
2021/12/01 08:35:24;;;;;;;1.48;0.70;;;6.00;99.90;;;;;;5075305;28;20047;-78
2021/12/01 08:37:51;;;;;;;0.85;0.57;;;6.00;99.90;;;;;;5093412;28;20442;-80
2021/12/01 08:40:18;;;;;;;1.38;0.60;;;6.00;99.90;;;;;;5094139;28;20028;-80
2021/12/01 08:42:45;;;;;;;0.98;0.47;;;6.00;99.90;;;;;;5075673;28;20020;-78
2021/12/01 08:45:11;;;;;;;0.85;0.50;;;6.00;99.90;;;;;;5093452;28;20012;-78
2021/12/01 08:47:37;;;;;;;0.40;0.40;;;6.10;99.90;;;;;;5093261;28;20028;-78
2021/12/01 08:50:05;;;;;;;0.50;0.40;;;6.10;99.90;;;;;;5093288;28;20062;-77
2021/12/01 08:52:32;;;;;;;0.35;0.35;;;6.10;99.90;;;;;;5074882;28;20024;-80
2021/12/01 08:54:57;;;;;;;1.35;0.40;;;6.20;99.90;;;;;;5075070;28;20044;-80
2021/12/01 08:57:23;;;;;;;0.82;0.40;;;6.30;99.90;;;;;;5075107;28;20050;-80
2021/12/01 08:59:50;;;;;;;0.77;0.40;;;6.30;99.90;;;;;;5093189;28;20031;-80
2021/12/01 09:02:17;;;;;;;0.63;0.43;;;6.40;99.90;;;;;;5075015;28;20111;-79
2021/12/01 09:04:43;;;;;;;1.13;0.50;;;6.40;99.90;;;;;;5074945;28;20028;-80
2021/12/01 09:07:09;;;;;;;0.73;0.40;;;6.50;99.90;;;;;;5075024;28;20024;-79
2021/12/01 09:09:34;;;;;;;0.60;0.40;;;6.60;99.90;;;;;;5074946;28;20500;-79
2021/12/01 09:12:00;;;;;;;0.43;0.40;;;6.60;99.90;;;;;;5092986;28;20020;-78
2021/12/01 09:14:26;;;;;;;2.40;0.60;;;6.60;99.90;;;;;;5093318;28;20024;-79
2021/12/01 09:16:55;;;;;;;0.57;0.50;;;6.60;99.90;;;;;;5074979;28;20545;-79
2021/12/01 09:19:22;;;;;;;0.63;0.50;;;6.60;99.90;;;;;;5074865;28;20020;-80
2021/12/01 09:21:48;;;;;;;1.52;0.65;;;6.60;99.90;;;;;;5074978;28;20035;-79
2021/12/01 09:24:15;;;;;;;0.85;0.60;;;6.60;99.90;;;;;;5092847;28;20070;-79
2021/12/01 09:26:42;;;;;;;0.40;0.40;;;6.60;99.90;;;;;;5074658;28;20020;-79
2021/12/01 09:29:08;;;;;;;0.52;0.40;;;6.60;99.90;;;;;;5092872;28;20170;-78
2021/12/01 09:31:34;;;;;;;0.93;0.60;;;6.70;99.90;;;;;;5074696;28;20156;-80
2021/12/01 09:34:00;;;;;;;3.95;0.50;;;6.70;99.90;;;;;;5093122;28;20024;-80
2021/12/01 09:36:26;;;;;;;0.47;0.40;;;6.70;99.90;;;;;;5092839;28;20052;-80
2021/12/01 09:38:52;;;;;;;0.93;0.50;;;6.60;99.90;;;;;;5092625;28;20047;-79
2021/12/01 09:41:18;;;;;;;0.30;0.30;;;6.70;99.90;;;;;;5074708;28;20563;-80
2021/12/01 09:43:44;;;;;;;1.83;0.50;;;6.80;99.90;;;;;;5092683;28;20060;-80
2021/12/01 09:46:10;;;;;;;0.32;0.32;;;6.80;99.90;;;;;;5093022;28;20031;-81
2021/12/01 09:48:38;;;;;;;0.60;0.50;;;6.80;99.90;;;;;;5092649;28;20016;-80
2021/12/01 09:51:05;;;;;;;0.40;0.40;;;6.90;99.90;;;;;;5092644;28;20476;-79
2021/12/01 09:53:32;;;;;;;0.63;0.50;;;6.90;99.90;;;;;;5074484;28;20038;-80
2021/12/01 09:55:57;;;;;;;0.50;0.50;;;6.90;99.90;;;;;;5074496;28;20024;-80
2021/12/01 09:58:30;;;;;;;0.80;0.50;;;6.90;99.90;;;;;;5074517;28;20093;-81
2021/12/01 10:01:03;;;;;;;2.53;0.57;;;6.90;99.90;;;;;;5074618;28;20047;-80
2021/12/01 10:03:29;;;;;;;4.55;0.43;;;7.00;99.90;;;;;;5093248;28;20076;-80
2021/12/01 10:06:02;;;;;;;0.32;0.32;;;7.10;99.90;;;;;;5078177;28;20410;-80
2021/12/01 10:08:41;;;;;;;0.50;0.38;;;7.20;99.90;;;;;;5078450;28;20023;-80
2021/12/01 10:11:16;;;;;;;0.50;0.32;;;7.20;99.90;;;;;;5096242;28;20085;-83
2021/12/01 10:13:53;;;;;;;1.67;0.60;;;7.30;99.90;;;;;;5077973;28;20131;-81
2021/12/01 10:16:19;;;;;;;0.75;0.40;;;7.30;99.90;;;;;;5096398;28;20020;-81
2021/12/01 10:18:48;;;;;;;0.88;0.60;;;7.40;99.90;;;;;;5096368;28;20043;-85
2021/12/01 10:21:20;;;;;;;0.65;0.50;;;7.50;99.90;;;;;;5077889;28;20024;-79
2021/12/01 10:24:13;;;;;;;0.63;0.40;;;7.50;99.90;;;;;;5077825;28;20035;-83
2021/12/01 10:26:49;;;;;;;0.45;0.45;;;7.50;99.90;;;;;;5064538;28;20032;-81
2021/12/01 10:29:17;;;;;;;0.22;0.22;;;7.60;99.90;;;;;;5095907;28;20537;-83
2021/12/01 10:32:01;;;;;;;0.63;0.57;;;7.50;99.90;;;;;;5077621;28;20028;-81
2021/12/01 10:34:58;;;;;;;0.73;0.52;;;7.60;99.90;;;;;;5095858;28;20056;-80
2021/12/01 10:37:29;;;;;;;0.88;0.50;;;7.60;99.90;;;;;;5072685;28;20086;-86
2021/12/01 10:40:10;;;;;;;2.80;0.40;;;7.50;99.90;;;;;;5075530;28;20384;-82
2021/12/01 10:43:06;;;;;;;0.30;0.30;;;7.50;99.90;;;;;;5075420;28;20472;-82
2021/12/01 10:45:32;;;;;;;1.23;0.70;;;7.50;99.90;;;;;;5074087;28;20039;-84
2021/12/01 10:47:59;;;;;;;1.23;0.60;;;7.50;99.90;;;;;;5075205;28;20037;-81
2021/12/01 10:50:28;;;;;;;0.73;0.30;;;7.50;99.90;;;;;;5090808;28;20454;-83
2021/12/01 10:53:11;;;;;;;0.70;0.45;;;7.50;99.90;;;;;;5075197;28;20048;-83
2021/12/01 10:55:46;;;;;;;0.30;0.30;;;7.50;99.90;;;;;;5075526;28;20025;-83
2021/12/01 10:58:13;;;;;;;0.30;0.30;;;7.50;99.90;;;;;;5075138;28;20102;-80
2021/12/01 11:00:48;;;;;;;1.15;0.40;;;7.50;99.90;;;;;;5075076;28;20444;-81
2021/12/01 11:03:15;;;;;;;1.58;0.50;;;7.60;99.90;;;;;;5090581;28;20032;-83
2021/12/01 11:05:46;;;;;;;1.45;0.60;;;7.70;99.90;;;;;;5090584;28;20043;-83
2021/12/01 11:08:21;;;;;;;1.67;0.50;;;7.70;99.90;;;;;;5090575;28;20017;-84
2021/12/01 11:10:53;;;;;;;0.90;0.55;;;7.70;99.90;;;;;;5090452;28;20026;-82
2021/12/01 11:13:20;;;;;;;0.50;0.43;;;7.70;99.90;;;;;;5073825;28;20033;-85
2021/12/01 11:15:52;;;;;;;0.90;0.50;;;7.70;99.90;;;;;;5074190;28;20024;-84
2021/12/01 11:18:24;;;;;;;0.70;0.30;;;7.60;99.90;;;;;;5090321;28;20043;-82
2021/12/01 11:20:55;;;;;;;1.63;0.60;;;7.60;99.90;;;;;;5090163;28;20033;-83
2021/12/01 11:23:33;;;;;;;1.77;0.90;;;7.50;99.90;;;;;;5090133;28;20031;-84
2021/12/01 11:26:14;;;;;;;1.02;0.40;;;7.50;99.90;;;;;;5074828;28;20472;-82
2021/12/01 11:28:53;;;;;;;1.05;0.70;;;7.40;99.90;;;;;;5090046;28;20476;-82
2021/12/01 11:31:21;;;;;;;0.73;0.50;;;7.40;99.90;;;;;;5074718;28;20052;-81
2021/12/01 11:33:49;;;;;;;1.40;0.75;;;7.30;99.90;;;;;;5089977;28;20032;-80
2021/12/01 11:36:18;;;;;;;1.33;0.80;;;7.40;99.90;;;;;;5074302;28;20385;-82
2021/12/01 11:38:48;;;;;;;1.30;0.80;;;7.40;99.90;;;;;;5089737;28;20457;-81
2021/12/01 11:41:14;;;;;;;1.23;0.60;;;7.50;99.90;;;;;;5075269;28;20091;-80
2021/12/01 11:43:39;;;;;;;2.63;0.70;;;7.40;99.90;;;;;;5089957;28;20198;-81
2021/12/01 11:46:07;;;;;;;1.40;0.68;;;7.50;99.90;;;;;;5074750;28;20024;-81
2021/12/01 11:48:57;;;;;;;2.58;0.80;;;7.60;99.90;;;;;;5089687;28;20020;-82
2021/12/01 11:51:40;;;;;;;6.55;2.05;;;7.60;99.90;;;;;;5074397;28;20032;-82
2021/12/01 11:54:16;;;;;;;0.88;0.65;;;7.60;99.90;;;;;;5074068;28;20020;-81
2021/12/01 11:56:48;;;;;;;1.23;0.63;;;7.60;99.90;;;;;;5089617;28;20399;-82
2021/12/01 11:59:14;;;;;;;0.63;0.50;;;7.50;99.90;;;;;;5089505;28;20024;-80
2021/12/01 12:02:00;;;;;;;1.75;0.57;;;7.60;99.90;;;;;;5089363;28;20025;-82
2021/12/01 12:04:41;;;;;;;0.40;0.40;;;7.60;99.90;;;;;;5073317;28;20055;-81
2021/12/01 12:07:11;;;;;;;1.95;0.50;;;7.60;99.90;;;;;;5073803;28;20379;-82
2021/12/01 12:09:38;;;;;;;0.95;0.60;;;7.60;99.90;;;;;;5089420;28;20523;-82
2021/12/01 12:12:14;;;;;;;0.63;0.40;;;7.70;99.90;;;;;;5089247;28;20025;-81
2021/12/01 12:14:45;;;;;;;0.98;0.57;;;7.80;99.90;;;;;;5089237;28;20027;-82
2021/12/01 12:17:33;;;;;;;0.82;0.40;;;8.10;99.90;;;;;;5089168;28;20032;-82
2021/12/01 12:20:22;;;;;;;0.75;0.40;;;8.20;99.90;;;;;;5073541;28;20086;-83
2021/12/01 12:22:48;;;;;;;3.13;0.82;;;8.20;99.90;;;;;;5073470;28;20020;-82
2021/12/01 12:25:53;;;;;;;0.50;0.38;;;8.10;99.90;;;;;;5073513;28;20020;-81
2021/12/01 12:28:28;;;;;;;0.50;0.35;;;7.90;99.90;;;;;;5072635;28;20051;-81
2021/12/01 12:30:57;;;;;;;0.30;0.30;;;7.80;99.90;;;;;;5089001;28;20484;-83
2021/12/01 12:33:26;;;;;;;1.88;0.40;;;7.80;99.90;;;;;;5088980;28;20480;-82
2021/12/01 12:36:02;;;;;;;0.63;0.30;;;7.70;99.90;;;;;;5088939;28;20029;-83
2021/12/01 12:38:28;;;;;;;1.08;0.65;;;7.70;99.90;;;;;;5088987;28;20048;-82
2021/12/01 12:41:08;;;;;;;1.52;0.55;;;7.60;99.90;;;;;;5093478;28;20390;-82
2021/12/01 12:43:36;;;;;;;0.80;0.40;;;7.60;99.90;;;;;;5075231;28;20530;-82
2021/12/01 12:46:06;;;;;;;1.95;0.75;;;7.60;99.90;;;;;;5075196;28;20016;-81
2021/12/01 12:48:39;;;;;;;1.58;0.77;;;7.50;99.90;;;;;;5075080;28;20024;-81
2021/12/01 12:51:17;;;;;;;1.35;0.70;;;7.40;99.90;;;;;;5075186;28;20024;-81
2021/12/01 12:54:10;;;;;;;1.05;0.65;;;7.40;99.90;;;;;;5075124;28;20028;-79
2021/12/01 12:56:38;;;;;;;1.13;0.45;;;7.30;99.90;;;;;;5093317;28;20024;-81
2021/12/01 12:59:30;;;;;;;1.60;0.68;;;7.30;99.90;;;;;;5075116;28;20043;-84
2021/12/01 13:02:15;;;;;;;1.08;0.80;;;7.30;99.90;;;;;;5075129;28;20028;-79
2021/12/01 13:04:47;;;;;;;0.80;0.50;;;7.30;99.90;;;;;;5074536;28;20024;-82
2021/12/01 13:07:42;;;;;;;2.65;0.50;;;7.30;99.90;;;;;;5074943;28;20032;-81
2021/12/01 13:10:10;;;;;;;1.33;1.00;;;7.20;99.90;;;;;;5075100;28;20392;-82